Time;durP1;ratioP1;P1;durP2;ratioP2;P2;SDS_P1;SDS_P2;PMS_P1;PMS_P2;Temp;Humidity;BMP_temperature;BMP_pressure;BME280_temperature;BME280_humidity;BME280_pressure;Samples;Min_cycle;Max_cycle;Signal;HPM_P1;HPM_P2
2021/09/06 00:00:10;;;;;;;1.17;0.38;;;;;;;19.53;62.93;102413.97;5055072;28;20059;-59
2021/09/06 00:02:36;;;;;;;2.25;0.55;;;;;;;19.55;63.38;102408.41;5055253;28;20028;-59
2021/09/06 00:05:04;;;;;;;1.75;0.70;;;;;;;19.52;63.32;102415.84;5054802;28;20025;-60
2021/09/06 00:07:30;;;;;;;2.70;0.63;;;;;;;19.51;63.12;102408.66;5055196;28;20020;-59
2021/09/06 00:10:01;;;;;;;1.38;0.70;;;;;;;19.49;62.97;102409.81;5054963;28;20078;-59
2021/09/06 00:12:26;;;;;;;1.52;0.80;;;;;;;19.46;63.27;102402.75;5055097;28;20036;-59
2021/09/06 00:14:51;;;;;;;3.15;0.93;;;;;;;19.48;63.40;102406.22;5054929;28;20045;-59
2021/09/06 00:17:17;;;;;;;0.63;0.30;;;;;;;19.48;63.51;102416.22;5054890;28;20027;-59
2021/09/06 00:19:42;;;;;;;2.15;0.60;;;;;;;19.46;63.54;102405.47;5054963;28;20025;-59
2021/09/06 00:22:07;;;;;;;1.30;0.60;;;;;;;19.47;63.21;102401.72;5054673;28;20035;-60
2021/09/06 00:24:35;;;;;;;1.40;0.70;;;;;;;19.51;63.65;102403.19;5054847;28;20112;-59
2021/09/06 00:27:00;;;;;;;1.10;0.50;;;;;;;19.39;63.57;102409.78;5054647;28;20384;-59
2021/09/06 00:29:26;;;;;;;1.17;0.63;;;;;;;19.51;63.23;102408.66;5054814;28;20035;-59
2021/09/06 00:31:51;;;;;;;1.17;0.40;;;;;;;19.44;64.03;102407.47;5054662;28;20024;-59
2021/09/06 00:34:16;;;;;;;0.77;0.35;;;;;;;19.48;63.21;102406.22;5054589;28;20027;-59
2021/09/06 00:36:42;;;;;;;1.00;0.60;;;;;;;19.41;63.45;102402.31;5054652;28;20028;-59
2021/09/06 00:39:07;;;;;;;1.40;0.52;;;;;;;19.35;62.92;102383.78;5054439;28;20052;-60
2021/09/06 00:41:32;;;;;;;0.98;0.70;;;;;;;19.43;63.10;102394.84;5053977;28;20040;-59
2021/09/06 00:43:58;;;;;;;2.00;0.60;;;;;;;19.39;62.83;102393.41;5054100;28;20044;-59
2021/09/06 00:46:23;;;;;;;0.85;0.50;;;;;;;19.42;64.01;102398.56;5054351;28;20494;-59
2021/09/06 00:48:49;;;;;;;0.82;0.52;;;;;;;19.45;62.68;102387.38;5054093;28;20021;-59
2021/09/06 00:51:15;;;;;;;2.25;0.98;;;;;;;19.38;63.52;102386.22;5054221;28;20052;-59
2021/09/06 00:53:41;;;;;;;3.75;1.00;;;;;;;19.43;63.46;102391.25;5054379;28;20033;-59
2021/09/06 00:56:06;;;;;;;2.83;0.60;;;;;;;19.35;63.52;102386.53;5054112;28;20052;-59
2021/09/06 00:58:31;;;;;;;0.90;0.55;;;;;;;19.33;63.84;102387.66;5054521;28;20075;-58
2021/09/06 01:00:57;;;;;;;0.77;0.60;;;;;;;19.37;63.07;102389.97;5054209;28;20458;-59
2021/09/06 01:03:22;;;;;;;1.63;0.45;;;;;;;19.38;63.16;102391.69;5054047;28;20036;-60
2021/09/06 01:05:48;;;;;;;1.48;0.57;;;;;;;19.41;62.83;102396.00;5053988;28;20386;-60
2021/09/06 01:08:13;;;;;;;0.73;0.40;;;;;;;19.43;63.32;102394.84;5053988;28;20017;-59
2021/09/06 01:10:38;;;;;;;1.40;0.32;;;;;;;19.42;62.45;102395.84;5053866;28;20481;-59
2021/09/06 01:13:04;;;;;;;2.85;0.75;;;;;;;19.31;63.91;102395.97;5053810;28;20029;-58
2021/09/06 01:15:29;;;;;;;2.42;0.90;;;;;;;19.34;63.59;102395.72;5053901;28;20031;-59
2021/09/06 01:17:56;;;;;;;1.05;0.30;;;;;;;19.31;63.64;102390.50;5053665;28;20052;-59
2021/09/06 01:20:21;;;;;;;0.52;0.40;;;;;;;19.23;64.04;102387.63;5053760;28;20052;-59
2021/09/06 01:22:47;;;;;;;1.15;0.40;;;;;;;19.31;64.03;102385.06;5053635;28;20094;-60
2021/09/06 01:25:17;;;;;;;0.70;0.55;;;;;;;19.32;63.50;102386.81;5053672;28;20047;-59
2021/09/06 01:27:44;;;;;;;1.63;0.40;;;;;;;19.36;63.95;102382.78;5053570;28;20056;-59
2021/09/06 01:30:10;;;;;;;1.40;0.75;;;;;;;19.36;63.74;102390.09;5053405;28;20094;-59
2021/09/06 01:32:35;;;;;;;3.22;0.90;;;;;;;19.34;63.76;102384.81;5053225;28;20032;-59
2021/09/06 01:35:01;;;;;;;1.08;0.50;;;;;;;19.39;63.46;102382.50;5053427;28;20041;-59
2021/09/06 01:37:26;;;;;;;1.90;0.73;;;;;;;19.23;64.14;102376.72;5053408;28;20102;-60
2021/09/06 01:39:52;;;;;;;2.67;0.60;;;;;;;19.22;64.28;102375.00;5053351;28;20116;-59
2021/09/06 01:42:17;;;;;;;0.70;0.60;;;;;;;19.25;63.53;102374.72;5053166;28;20035;-59
2021/09/06 01:44:42;;;;;;;1.95;0.50;;;;;;;19.28;64.28;102379.88;5053471;28;20540;-59
2021/09/06 01:47:08;;;;;;;0.70;0.65;;;;;;;19.21;63.86;102381.47;5053246;28;20020;-60
2021/09/06 01:49:33;;;;;;;0.82;0.70;;;;;;;19.27;63.63;102374.56;5053219;28;20025;-60
2021/09/06 01:51:58;;;;;;;1.98;0.80;;;;;;;19.22;64.34;102375.00;5052357;28;20024;-59
2021/09/06 01:54:24;;;;;;;1.17;0.63;;;;;;;19.19;64.45;102380.75;5053508;28;20461;-59
2021/09/06 01:56:49;;;;;;;0.63;0.28;;;;;;;19.28;63.98;102374.44;5053133;28;20067;-59
2021/09/06 01:59:14;;;;;;;1.75;0.47;;;;;;;19.21;64.13;102378.75;5053160;28;20033;-59
2021/09/06 02:01:40;;;;;;;0.68;0.45;;;;;;;19.28;63.83;102379.88;5053275;28;20078;-59
2021/09/06 02:04:05;;;;;;;0.50;0.30;;;;;;;19.21;63.75;102373.28;5052812;28;20520;-60
2021/09/06 02:06:30;;;;;;;0.73;0.57;;;;;;;19.22;63.87;102369.56;5053015;28;20067;-60
2021/09/06 02:08:56;;;;;;;2.10;0.47;;;;;;;19.21;64.31;102365.09;5052804;28;20024;-59
2021/09/06 02:11:21;;;;;;;0.55;0.50;;;;;;;19.30;63.62;102361.50;5053079;28;20021;-59
2021/09/06 02:13:46;;;;;;;1.40;0.68;;;;;;;19.28;63.82;102368.97;5053137;28;20020;-60
2021/09/06 02:16:12;;;;;;;1.02;0.50;;;;;;;19.19;64.59;102373.44;5052887;28;20021;-60
2021/09/06 02:18:37;;;;;;;0.77;0.30;;;;;;;19.19;64.18;102369.84;5035103;28;20033;-59
2021/09/06 02:21:02;;;;;;;1.40;0.40;;;;;;;19.23;64.15;102372.13;5052632;28;20063;-59
2021/09/06 02:23:28;;;;;;;0.45;0.45;;;;;;;19.26;64.25;102362.81;5052901;28;20052;-59
2021/09/06 02:25:53;;;;;;;0.95;0.52;;;;;;;19.27;64.14;102371.84;5052671;28;20047;-60
2021/09/06 02:28:18;;;;;;;1.15;0.65;;;;;;;19.21;64.81;102378.75;5052523;28;20032;-59
2021/09/06 02:30:44;;;;;;;1.33;0.82;;;;;;;19.24;64.64;102373.84;5052606;28;20380;-59
2021/09/06 02:33:09;;;;;;;1.75;0.65;;;;;;;19.22;63.88;102369.56;5052756;28;20039;-60
2021/09/06 02:35:35;;;;;;;0.77;0.45;;;;;;;19.26;63.76;102373.72;5052730;28;20028;-60
2021/09/06 02:38:00;;;;;;;1.08;0.60;;;;;;;19.25;63.98;102369.28;5052625;28;20029;-59
2021/09/06 02:40:25;;;;;;;0.57;0.30;;;;;;;19.24;64.71;102368.41;5052763;28;20017;-59
2021/09/06 02:42:51;;;;;;;0.68;0.30;;;;;;;19.21;64.61;102373.28;5052415;28;20052;-60
2021/09/06 02:45:16;;;;;;;1.15;0.80;;;;;;;19.12;65.02;102369.53;5052597;28;20033;-60
2021/09/06 02:47:47;;;;;;;1.05;0.50;;;;;;;19.20;64.66;102360.66;5052736;28;20029;-59
2021/09/06 02:50:13;;;;;;;0.38;0.38;;;;;;;19.22;64.23;102364.09;5052266;28;20025;-60
2021/09/06 02:52:38;;;;;;;0.60;0.50;;;;;;;19.20;64.01;102306.13;5052390;28;20067;-59
2021/09/06 02:55:04;;;;;;;1.75;0.60;;;;;;;19.07;64.95;102310.97;5052663;28;20025;-59
2021/09/06 02:57:29;;;;;;;0.60;0.30;;;;;;;19.01;66.01;102282.44;5052411;28;20040;-59
2021/09/06 02:59:55;;;;;;;1.20;0.75;;;;;;;19.10;65.39;102360.63;5052482;28;20462;-59
2021/09/06 03:02:21;;;;;;;0.88;0.40;;;;;;;19.20;64.33;102352.47;5052531;28;20476;-59
2021/09/06 03:04:46;;;;;;;1.02;0.40;;;;;;;19.20;65.43;102355.19;5056139;28;20531;-59
2021/09/06 03:07:11;;;;;;;0.60;0.40;;;;;;;19.22;64.68;102354.06;5056039;28;20095;-59
2021/09/06 03:09:36;;;;;;;2.78;0.90;;;;;;;19.19;64.06;102351.63;5055847;28;20020;-59
2021/09/06 03:12:02;;;;;;;0.98;0.40;;;;;;;19.21;64.67;102362.38;5038186;28;20079;-59
2021/09/06 03:14:28;;;;;;;0.98;0.50;;;;;;;19.14;65.27;102363.91;5055899;28;20043;-59
2021/09/06 03:16:53;;;;;;;3.10;0.77;;;;;;;19.14;64.66;102366.66;5056114;28;20055;-59
2021/09/06 03:19:19;;;;;;;0.82;0.55;;;;;;;19.15;64.47;102362.94;5055904;28;20481;-60
2021/09/06 03:21:44;;;;;;;0.52;0.40;;;;;;;19.15;64.99;102357.50;5055871;28;20060;-59
2021/09/06 03:24:10;;;;;;;0.73;0.40;;;;;;;19.14;64.57;102323.88;5055956;28;20056;-59
2021/09/06 03:26:35;;;;;;;1.52;0.90;;;;;;;19.13;65.31;102321.31;5055755;28;20150;-60
2021/09/06 03:29:01;;;;;;;0.50;0.30;;;;;;;19.07;65.60;102328.19;5055578;28;20466;-59
2021/09/06 03:31:26;;;;;;;1.65;0.60;;;;;;;19.07;65.07;102330.06;5055890;28;20090;-59
2021/09/06 03:33:52;;;;;;;1.10;0.38;;;;;;;19.07;65.36;102330.06;5055877;28;20025;-60
2021/09/06 03:36:17;;;;;;;1.77;0.40;;;;;;;19.01;65.02;102322.47;5055770;28;20032;-59
2021/09/06 03:38:42;;;;;;;4.53;0.50;;;;;;;19.02;65.29;102318.72;5055769;28;20021;-59
2021/09/06 03:41:08;;;;;;;1.05;0.47;;;;;;;19.06;65.07;102314.72;5055445;28;20020;-59
2021/09/06 03:43:33;;;;;;;1.38;0.65;;;;;;;19.03;66.40;102320.44;5055517;28;20094;-58
2021/09/06 03:45:59;;;;;;;3.22;0.93;;;;;;;19.00;66.30;102312.56;5055354;28;20029;-59
2021/09/06 03:48:24;;;;;;;0.90;0.38;;;;;;;19.07;66.06;102308.25;5055632;28;20504;-60
2021/09/06 03:50:49;;;;;;;0.77;0.20;;;;;;;19.04;66.17;102311.25;5055330;28;20032;-59
2021/09/06 03:53:14;;;;;;;0.88;0.40;;;;;;;19.04;65.97;102311.25;5055301;28;20028;-59
2021/09/06 03:55:40;;;;;;;1.02;0.68;;;;;;;19.06;65.55;102314.72;5055472;28;20502;-59
2021/09/06 03:58:05;;;;;;;0.93;0.50;;;;;;;19.02;65.56;102321.44;5055097;28;20056;-59
2021/09/06 04:00:30;;;;;;;1.45;0.30;;;;;;;19.04;66.50;102324.91;5055376;28;20028;-59
2021/09/06 04:02:57;;;;;;;1.52;0.40;;;;;;;19.34;65.28;102292.06;5055312;28;20071;-59
2021/09/06 04:05:22;;;;;;;0.45;0.20;;;;;;;19.79;63.98;102292.34;5055183;28;20532;-59
2021/09/06 04:07:47;;;;;;;0.40;0.30;;;;;;;19.98;63.71;102294.16;5054950;28;20528;-59
2021/09/06 04:10:13;;;;;;;1.92;0.30;;;;;;;20.13;64.81;102300.88;5054711;28;20028;-59
2021/09/06 04:12:39;;;;;;;0.75;0.40;;;;;;;20.24;63.82;102323.59;5055233;28;20370;-59
2021/09/06 04:15:05;;;;;;;0.22;0.20;;;;;;;20.36;64.02;102333.31;5053789;28;20017;-59
2021/09/06 04:17:30;;;;;;;0.45;0.28;;;;;;;20.39;64.40;102327.56;5055074;28;20347;-59
2021/09/06 04:19:56;;;;;;;0.40;0.30;;;;;;;20.44;64.41;102303.41;5054774;28;20063;-60
2021/09/06 04:22:21;;;;;;;0.30;0.20;;;;;;;20.51;64.24;102298.22;5054792;28;20017;-59
2021/09/06 04:24:47;;;;;;;0.32;0.15;;;;;;;20.52;64.53;102300.81;5054879;28;20036;-60
2021/09/06 04:27:12;;;;;;;1.40;0.65;;;;;;;20.60;63.87;102295.44;5054921;28;20025;-60
2021/09/06 04:29:37;;;;;;;1.00;0.32;;;;;;;20.62;64.24;102296.13;5054623;28;20104;-59
2021/09/06 04:32:03;;;;;;;1.17;0.20;;;;;;;20.58;64.40;102294.72;5054686;28;20021;-60
2021/09/06 04:34:29;;;;;;;0.65;0.20;;;;;;;20.69;63.90;102299.13;5054770;28;20066;-60
2021/09/06 04:36:54;;;;;;;1.10;0.55;;;;;;;20.63;64.41;102297.00;5054565;28;20024;-59
2021/09/06 04:39:19;;;;;;;0.60;0.20;;;;;;;20.63;63.58;102295.13;5054414;28;20446;-59
2021/09/06 04:41:45;;;;;;;0.20;0.20;;;;;;;20.61;64.25;102297.16;5054303;28;20362;-60
2021/09/06 04:44:10;;;;;;;1.40;0.38;;;;;;;20.67;64.70;102293.81;5054400;28;20044;-60
2021/09/06 04:46:35;;;;;;;1.13;0.38;;;;;;;20.67;64.92;102299.28;5054270;28;20604;-59
2021/09/06 04:49:00;;;;;;;1.10;0.50;;;;;;;20.75;64.37;102305.84;5054187;28;20025;-59
2021/09/06 04:51:26;;;;;;;0.50;0.40;;;;;;;20.69;65.45;102297.25;5054361;28;20470;-59
2021/09/06 04:53:52;;;;;;;0.95;0.20;;;;;;;20.72;64.46;102299.69;5053928;28;20490;-59
2021/09/06 04:56:19;;;;;;;0.85;0.30;;;;;;;20.71;65.31;102300.69;5054254;28;20060;-59
2021/09/06 04:58:45;;;;;;;1.60;0.50;;;;;;;20.82;65.85;102304.22;5054420;28;20025;-59
2021/09/06 05:01:10;;;;;;;0.75;0.60;;;;;;;20.80;65.09;102293.44;5054014;28;20044;-59
2021/09/06 05:03:35;;;;;;;0.85;0.30;;;;;;;20.76;65.60;102291.19;5054125;28;20025;-60
2021/09/06 05:06:01;;;;;;;0.95;0.25;;;;;;;20.68;66.06;102290.09;5054082;28;20021;-59
2021/09/06 05:08:26;;;;;;;0.57;0.32;;;;;;;20.78;65.88;102294.63;5053998;28;20039;-59
2021/09/06 05:10:53;;;;;;;0.80;0.10;;;;;;;20.87;65.39;102288.25;5054206;28;20062;-59
2021/09/06 05:13:19;;;;;;;1.05;0.32;;;;;;;20.77;66.20;102295.63;5054247;28;20067;-59
2021/09/06 05:15:44;;;;;;;1.20;0.43;;;;;;;20.78;65.80;102290.00;5053788;28;20028;-59
2021/09/06 05:18:10;;;;;;;1.55;0.45;;;;;;;20.64;65.84;102294.09;5053767;28;20028;-59
2021/09/06 05:20:36;;;;;;;0.63;0.30;;;;;;;20.61;65.93;102293.56;5053726;28;20013;-60
2021/09/06 05:23:02;;;;;;;0.50;0.20;;;;;;;20.65;64.98;102284.03;5053238;28;20032;-60
2021/09/06 05:25:28;;;;;;;0.35;0.17;;;;;;;20.64;65.41;102288.63;5053800;28;20024;-59
2021/09/06 05:27:53;;;;;;;0.50;0.30;;;;;;;20.66;65.82;102286.63;5053357;28;20458;-59
2021/09/06 05:30:18;;;;;;;1.17;0.30;;;;;;;20.69;65.88;102280.88;5053478;28;20035;-60
2021/09/06 05:32:43;;;;;;;0.40;0.10;;;;;;;20.63;65.91;102291.53;5053613;28;20475;-60
2021/09/06 05:35:09;;;;;;;1.63;0.30;;;;;;;20.67;65.35;102285.63;5053529;28;20029;-59
2021/09/06 05:37:34;;;;;;;1.20;0.30;;;;;;;20.62;65.79;102290.66;5053442;28;20037;-60
2021/09/06 05:40:00;;;;;;;0.20;0.10;;;;;;;20.59;66.37;102279.19;5053399;28;20096;-60
2021/09/06 05:42:25;;;;;;;0.52;0.17;;;;;;;20.58;65.89;102280.19;5053038;28;20021;-60
2021/09/06 05:44:50;;;;;;;2.10;0.40;;;;;;;20.67;65.77;102276.56;5053365;28;20033;-59
2021/09/06 05:47:16;;;;;;;1.00;0.25;;;;;;;20.68;65.14;102268.22;5053303;28;20020;-59
2021/09/06 05:49:42;;;;;;;0.77;0.20;;;;;;;20.60;66.55;102269.97;5035533;28;20060;-60
2021/09/06 05:52:07;;;;;;;1.08;0.10;;;;;;;20.65;65.76;102273.97;5052788;28;20053;-59
2021/09/06 05:54:33;;;;;;;1.55;0.40;;;;;;;20.60;66.74;102265.38;5053330;28;20036;-59
2021/09/06 05:56:58;;;;;;;0.82;0.40;;;;;;;20.60;67.17;102268.09;5053220;28;20021;-60
2021/09/06 05:59:23;;;;;;;0.88;0.08;;;;;;;20.63;66.12;102270.53;5053108;28;20457;-60
2021/09/06 06:01:48;;;;;;;1.23;0.20;;;;;;;20.56;66.35;102258.50;5053077;28;20117;-60
2021/09/06 06:04:14;;;;;;;0.93;0.40;;;;;;;20.67;66.01;102265.63;5052873;28;20028;-60
2021/09/06 06:06:39;;;;;;;0.63;0.13;;;;;;;20.58;66.78;102263.81;5052968;28;20021;-61
2021/09/06 06:09:05;;;;;;;0.50;0.38;;;;;;;20.69;66.41;102267.19;5052923;28;20409;-60
2021/09/06 06:11:31;;;;;;;0.30;0.10;;;;;;;20.67;66.81;102258.31;5052945;28;20020;-59
2021/09/06 06:13:56;;;;;;;1.08;0.22;;;;;;;20.69;66.42;102269.06;5052812;28;20385;-59
2021/09/06 06:16:23;;;;;;;1.90;0.60;;;;;;;20.68;65.92;102254.56;5045536;28;20044;-60
2021/09/06 06:18:48;;;;;;;0.40;0.30;;;;;;;20.67;66.59;102255.56;5047055;28;20099;-59
2021/09/06 06:21:14;;;;;;;1.17;0.28;;;;;;;20.64;66.22;102261.31;5052172;28;20028;-60
2021/09/06 06:23:39;;;;;;;1.23;0.22;;;;;;;20.71;66.10;102262.44;5047531;28;20580;-60
2021/09/06 06:26:04;;;;;;;2.63;0.60;;;;;;;20.64;67.06;102269.50;5052369;28;20029;-59
2021/09/06 06:28:29;;;;;;;0.85;0.30;;;;;;;20.76;65.75;102270.16;5050831;28;20106;-59
2021/09/06 06:30:55;;;;;;;1.67;0.32;;;;;;;20.65;66.06;102268.50;5051507;28;20045;-59
2021/09/06 06:33:20;;;;;;;0.60;0.30;;;;;;;20.78;66.16;102267.28;5052253;28;20458;-60
2021/09/06 06:35:45;;;;;;;1.58;0.40;;;;;;;20.84;64.73;102264.81;5042642;28;20493;-59
2021/09/06 06:38:11;;;;;;;1.25;0.47;;;;;;;20.90;64.82;102271.53;5051164;28;20036;-59
2021/09/06 06:40:36;;;;;;;0.40;0.30;;;;;;;20.92;64.78;102261.28;5052583;28;20020;-59
2021/09/06 06:43:02;;;;;;;0.70;0.68;;;;;;;20.98;63.72;102267.00;5046129;28;20083;-58
2021/09/06 06:45:28;;;;;;;2.08;0.50;;;;;;;21.02;63.89;102271.16;5049311;28;20045;-61
2021/09/06 06:47:53;;;;;;;3.95;1.08;;;;;;;21.29;64.24;102272.97;5056107;28;20150;-58
2021/09/06 06:50:20;;;;;;;1.75;0.60;;;;;;;21.40;62.88;102285.56;5052303;28;20028;-58
2021/09/06 06:52:46;;;;;;;7.30;0.98;;;;;;;21.55;64.93;102277.69;5052727;28;20024;-59
2021/09/06 06:55:11;;;;;;;4.90;1.10;;;;;;;21.60;63.02;102269.84;5055873;28;20685;-58
2021/09/06 06:57:36;;;;;;;5.68;1.13;;;;;;;21.62;62.85;102273.28;5046516;28;20080;-56
2021/09/06 07:00:04;;;;;;;3.97;0.90;;;;;;;21.42;62.92;102261.66;5052945;28;20025;-58
2021/09/06 07:02:29;;;;;;;3.20;0.98;;;;;;;21.31;62.55;102270.94;5044686;28;20413;-58
2021/09/06 07:04:55;;;;;;;2.58;1.13;;;;;;;20.82;63.49;102269.53;5045773;28;20477;-60
2021/09/06 07:07:21;;;;;;;2.72;0.40;;;;;;;20.48;64.77;102272.03;5054855;28;20036;-57
2021/09/06 07:09:46;;;;;;;7.40;0.77;;;;;;;20.59;64.16;102277.31;5055602;28;20049;-60
2021/09/06 07:12:11;;;;;;;4.63;0.90;;;;;;;20.59;63.63;102285.50;5055155;28;20037;-55
2021/09/06 07:14:37;;;;;;;2.20;0.50;;;;;;;20.49;64.07;102279.25;5042420;28;20026;-55
2021/09/06 07:17:03;;;;;;;2.17;0.43;;;;;;;20.39;63.69;102278.38;5052593;28;20037;-56
2021/09/06 07:19:28;;;;;;;2.58;0.60;;;;;;;20.52;63.45;102278.09;5054595;28;20024;-53
2021/09/06 07:21:53;;;;;;;1.92;0.20;;;;;;;20.62;63.03;102285.19;5040359;28;20030;-54
2021/09/06 07:24:19;;;;;;;1.08;0.40;;;;;;;20.74;62.39;102269.47;5055290;28;20032;-54
2021/09/06 07:26:45;;;;;;;0.82;0.28;;;;;;;20.55;62.18;102270.44;5055660;28;20017;-54
2021/09/06 07:29:10;;;;;;;0.63;0.10;;;;;;;20.58;62.09;102278.31;5054819;28;20033;-55
2021/09/06 07:31:35;;;;;;;1.27;0.20;;;;;;;20.64;61.07;102272.25;5055305;28;20029;-54
2021/09/06 07:34:01;;;;;;;0.90;0.35;;;;;;;20.63;61.91;102276.00;5054768;28;20029;-55
2021/09/06 07:36:26;;;;;;;1.83;0.40;;;;;;;20.63;62.08;102265.06;5055081;28;20469;-54
2021/09/06 07:38:52;;;;;;;1.00;0.30;;;;;;;20.84;61.08;102272.16;5054206;28;20025;-54
2021/09/06 07:41:17;;;;;;;0.80;0.40;;;;;;;20.80;61.82;102251.59;5053449;28;20075;-55
2021/09/06 07:43:44;;;;;;;0.50;0.40;;;;;;;20.71;61.42;102273.38;5054977;28;20056;-55
2021/09/06 07:46:09;;;;;;;1.02;0.40;;;;;;;20.69;61.37;102263.59;5052604;28;20067;-55
2021/09/06 07:48:35;;;;;;;0.57;0.30;;;;;;;21.05;60.26;102274.59;5055131;28;20052;-55
2021/09/06 07:51:00;;;;;;;3.33;0.30;;;;;;;20.90;60.89;102266.06;5052276;28;20037;-55
2021/09/06 07:53:26;;;;;;;0.95;0.28;;;;;;;20.90;59.94;102264.19;5052913;28;20071;-55
2021/09/06 07:55:51;;;;;;;1.10;0.25;;;;;;;20.92;59.95;102269.50;5055168;28;20036;-55
2021/09/06 07:58:16;;;;;;;1.25;0.20;;;;;;;20.81;60.69;102272.44;5042738;28;20052;-54
2021/09/06 08:00:42;;;;;;;0.63;0.20;;;;;;;20.89;60.47;102270.66;5049580;28;20021;-55
2021/09/06 08:03:07;;;;;;;1.10;0.20;;;;;;;20.98;60.72;102263.41;5044710;28;20086;-54
2021/09/06 08:05:33;;;;;;;0.57;0.20;;;;;;;20.98;59.63;102268.88;5054297;28;20024;-55
2021/09/06 08:07:59;;;;;;;1.05;0.30;;;;;;;21.05;60.95;102270.00;5038341;28;20026;-52
2021/09/06 08:10:25;;;;;;;0.40;0.20;;;;;;;20.71;61.64;102267.03;5051544;28;20032;-58
2021/09/06 08:12:50;;;;;;;2.30;0.45;;;;;;;20.85;63.26;102261.06;5044100;28;20021;-58
2021/09/06 08:15:16;;;;;;;4.70;0.88;;;;;;;20.59;62.93;102269.13;5054985;28;20024;-55
2021/09/06 08:17:41;;;;;;;4.40;0.60;;;;;;;20.59;63.29;102266.38;5037299;28;20029;-52
2021/09/06 08:20:10;;;;;;;2.58;0.20;;;;;;;20.47;62.44;102275.78;5049988;28;20028;-54
2021/09/06 08:22:35;;;;;;;1.83;0.60;;;;;;;20.61;62.63;102258.88;5037164;28;20032;-55
2021/09/06 08:25:03;;;;;;;0.77;0.35;;;;;;;20.62;63.16;102260.59;5037192;28;20026;-55
2021/09/06 08:27:28;;;;;;;2.63;0.30;;;;;;;20.61;63.19;102269.81;5043916;28;20371;-55
2021/09/06 08:29:54;;;;;;;5.53;0.40;;;;;;;20.59;64.02;102266.38;5052811;28;20040;-54
2021/09/06 08:32:19;;;;;;;1.13;0.40;;;;;;;20.65;64.09;102273.97;5053665;28;20701;-55
2021/09/06 08:34:48;;;;;;;3.42;0.82;;;;;;;20.75;64.52;102262.13;5041498;28;20068;-56
2021/09/06 08:37:13;;;;;;;4.30;0.50;;;;;;;20.84;64.11;102272.16;5035017;28;20045;-53
2021/09/06 08:39:38;;;;;;;5.53;1.25;;;;;;;20.93;63.87;102271.22;5039580;28;20021;-55
2021/09/06 08:42:04;;;;;;;1.73;0.60;;;;;;;20.88;64.14;102279.88;5053272;28;20025;-55
2021/09/06 08:44:29;;;;;;;1.00;0.47;;;;;;;20.92;63.49;102275.81;5054153;28;20468;-55
2021/09/06 08:46:55;;;;;;;1.65;0.40;;;;;;;20.88;63.23;102281.75;5054059;28;20091;-55
2021/09/06 08:49:21;;;;;;;1.15;0.25;;;;;;;20.89;63.34;102269.81;5054438;28;20036;-55
2021/09/06 08:51:47;;;;;;;1.30;0.40;;;;;;;20.95;62.19;102271.91;5054416;28;20028;-55
2021/09/06 08:54:13;;;;;;;0.95;0.50;;;;;;;20.93;62.53;102269.34;5054152;28;20680;-54
2021/09/06 08:56:38;;;;;;;3.20;0.77;;;;;;;20.91;62.84;102256.84;5054308;28;20055;-55
2021/09/06 08:59:07;;;;;;;1.02;0.50;;;;;;;20.90;61.96;102260.59;5054025;28;20021;-55
2021/09/06 09:01:41;;;;;;;1.83;0.60;;;;;;;21.02;61.15;102270.31;5053827;28;20497;-55
2021/09/06 09:04:17;;;;;;;2.15;0.73;;;;;;;20.95;61.09;102263.72;5053990;28;20029;-55
2021/09/06 09:06:43;;;;;;;1.10;0.50;;;;;;;20.96;61.03;102259.97;5053935;28;20056;-54
2021/09/06 09:09:08;;;;;;;0.55;0.40;;;;;;;20.95;61.04;102280.13;5052888;28;20071;-54
2021/09/06 09:11:34;;;;;;;2.30;0.43;;;;;;;20.97;60.22;102272.63;5052844;28;20540;-54
2021/09/06 09:14:13;;;;;;;0.85;0.43;;;;;;;20.94;60.30;102272.94;5034414;28;20017;-54
2021/09/06 09:16:38;;;;;;;0.65;0.38;;;;;;;20.99;60.40;102276.06;5051803;28;20047;-54
2021/09/06 09:19:05;;;;;;;1.15;0.47;;;;;;;20.97;61.07;102268.00;5053763;28;20448;-55
2021/09/06 09:21:31;;;;;;;0.43;0.20;;;;;;;21.01;59.26;102271.31;5053790;28;20355;-55
2021/09/06 09:24:01;;;;;;;1.52;0.50;;;;;;;21.05;59.22;102272.72;5053321;28;20496;-54
2021/09/06 09:26:28;;;;;;;3.40;0.80;;;;;;;21.06;59.60;102259.91;5055427;28;20064;-52
2021/09/06 09:29:07;;;;;;;0.88;0.30;;;;;;;21.08;59.09;102266.06;5061738;28;20051;-54
2021/09/06 09:31:33;;;;;;;2.83;0.60;;;;;;;21.11;60.02;102268.50;5053866;28;20377;-55
2021/09/06 09:33:58;;;;;;;1.88;0.52;;;;;;;21.10;59.82;102267.63;5053497;28;20028;-55
2021/09/06 09:36:35;;;;;;;1.73;0.82;;;;;;;21.11;58.89;102269.34;5053560;28;20525;-55
2021/09/06 09:39:20;;;;;;;2.17;0.80;;;;;;;21.13;58.67;102261.84;5053376;28;20028;-54
2021/09/06 09:41:51;;;;;;;3.97;1.00;;;;;;;21.13;59.60;102267.31;5053375;28;20071;-55
2021/09/06 09:44:22;;;;;;;0.98;0.40;;;;;;;21.13;58.90;102270.06;5053434;28;20067;-54
2021/09/06 09:46:59;;;;;;;1.05;0.38;;;;;;;21.11;58.84;102269.34;5053470;28;20047;-54
2021/09/06 09:49:25;;;;;;;2.17;0.50;;;;;;;21.17;58.51;102263.28;5053203;28;20047;-55
2021/09/06 09:51:51;;;;;;;0.95;0.47;;;;;;;21.18;58.26;102261.41;5052854;28;20031;-54
2021/09/06 09:54:17;;;;;;;1.10;0.50;;;;;;;21.21;58.24;102267.41;5053575;28;20373;-55
2021/09/06 09:56:44;;;;;;;1.33;0.60;;;;;;;21.19;59.04;102260.38;5053358;28;20489;-58
2021/09/06 09:59:12;;;;;;;2.72;0.52;;;;;;;21.26;57.80;102256.88;5053252;28;20063;-59
2021/09/06 10:02:07;;;;;;;1.70;0.77;;;;;;;21.13;59.99;102259.13;5053172;28;20041;-53
2021/09/06 10:04:46;;;;;;;1.85;0.40;;;;;;;21.15;60.54;102262.56;5053230;28;20029;-54
2021/09/06 10:07:12;;;;;;;1.65;0.40;;;;;;;21.18;60.34;102261.41;5053090;28;20025;-51
2021/09/06 10:09:45;;;;;;;2.30;0.47;;;;;;;21.16;61.30;102260.69;5051137;28;20478;-53
2021/09/06 10:12:17;;;;;;;0.90;0.40;;;;;;;21.14;60.11;102258.09;5050261;28;20055;-52
2021/09/06 10:14:55;;;;;;;0.57;0.38;;;;;;;21.13;60.54;102261.84;5052739;28;20510;-53
2021/09/06 10:17:51;;;;;;;1.38;0.75;;;;;;;21.19;60.18;102261.25;5052222;28;20033;-53
2021/09/06 10:20:17;;;;;;;2.45;0.68;;;;;;;21.10;60.32;102266.78;5051442;28;20035;-52
2021/09/06 10:22:45;;;;;;;0.85;0.47;;;;;;;21.17;59.83;102256.94;5052660;28;20021;-53
2021/09/06 10:25:18;;;;;;;0.85;0.35;;;;;;;21.23;59.29;102261.78;5052587;28;20447;-51
2021/09/06 10:27:55;;;;;;;1.60;0.40;;;;;;;21.16;59.77;102256.06;5052272;28;20104;-53
2021/09/06 10:30:36;;;;;;;0.70;0.32;;;;;;;21.25;58.55;102257.91;5052563;28;20025;-53
2021/09/06 10:33:03;;;;;;;2.40;0.40;;;;;;;21.23;59.45;102251.72;5052652;28;20021;-52
2021/09/06 10:35:29;;;;;;;2.40;0.50;;;;;;;21.16;59.09;102256.06;5052699;28;20049;-52
2021/09/06 10:38:05;;;;;;;1.27;0.65;;;;;;;21.20;59.36;102257.50;5052916;28;20414;-52
2021/09/06 10:40:36;;;;;;;1.17;0.70;;;;;;;21.15;58.24;102246.13;5052727;28;20405;-53
2021/09/06 10:43:22;;;;;;;1.58;0.40;;;;;;;21.18;58.71;102250.47;5052319;28;20051;-52
2021/09/06 10:45:50;;;;;;;0.70;0.35;;;;;;;21.24;58.23;102247.97;5052441;28;20048;-53
2021/09/06 10:48:25;;;;;;;1.42;0.43;;;;;;;21.17;58.78;102246.88;5052812;28;20045;-53
2021/09/06 10:50:51;;;;;;;;;;;;;;;21.28;58.47;102246.66;5053064;28;20036;-53
2021/09/06 10:53:19;;;;;;;2.33;0.50;;;;;;;21.18;58.03;102247.72;5052287;28;20380;-53
2021/09/06 10:55:54;;;;;;;1.20;0.40;;;;;;;21.29;57.79;102240.16;5052672;28;20029;-53
2021/09/06 10:58:24;;;;;;;3.90;0.50;;;;;;;21.26;58.50;102240.47;5052725;28;20063;-53
2021/09/06 11:00:57;;;;;;;2.92;0.60;;;;;;;21.31;57.89;102248.19;5052519;28;20511;-53
2021/09/06 11:03:25;;;;;;;0.80;0.20;;;;;;;21.45;57.08;102238.59;5052441;28;20033;-53
2021/09/06 11:05:58;;;;;;;1.60;0.38;;;;;;;21.23;57.65;102246.22;5052712;28;20033;-53
2021/09/06 11:08:29;;;;;;;0.80;0.40;;;;;;;21.35;56.84;102241.44;5052291;28;20055;-53
2021/09/06 11:10:56;;;;;;;2.53;0.55;;;;;;;21.35;56.79;102240.56;5051904;28;20028;-53
2021/09/06 11:13:22;;;;;;;2.25;0.70;;;;;;;21.28;57.81;102246.66;5052725;28;20348;-52
2021/09/06 11:15:48;;;;;;;0.85;0.25;;;;;;;21.28;57.04;102241.19;5052214;28;20477;-52
2021/09/06 11:18:13;;;;;;;2.30;0.75;;;;;;;21.40;57.01;102230.00;5050465;28;20029;-53
2021/09/06 11:20:43;;;;;;;1.17;0.57;;;;;;;21.25;57.19;102238.75;5052245;28;20032;-53